sensor_id;sensor_type;location;lat;lon;timestamp;P1;durP1;ratioP1;P2;durP2;ratioP2
2548;SDS011;1284;53.520;10.248;2023-09-12T00:02:02;7.80;;;4.03;;
2548;SDS011;1284;53.520;10.248;2023-09-12T00:04:29;8.65;;;3.80;;
2548;SDS011;1284;53.520;10.248;2023-09-12T00:06:54;5.28;;;3.03;;
2548;SDS011;1284;53.520;10.248;2023-09-12T00:09:20;12.13;;;5.35;;
2548;SDS011;1284;53.520;10.248;2023-09-12T00:11:45;10.02;;;4.35;;
2548;SDS011;1284;53.520;10.248;2023-09-12T00:14:10;9.30;;;4.78;;
2548;SDS011;1284;53.520;10.248;2023-09-12T00:16:40;9.45;;;4.68;;
2548;SDS011;1284;53.520;10.248;2023-09-12T00:19:05;10.68;;;5.50;;
2548;SDS011;1284;53.520;10.248;2023-09-12T00:21:31;10.20;;;4.72;;
2548;SDS011;1284;53.520;10.248;2023-09-12T00:23:56;9.20;;;4.75;;
2548;SDS011;1284;53.520;10.248;2023-09-12T00:26:22;8.70;;;4.28;;
2548;SDS011;1284;53.520;10.248;2023-09-12T00:28:49;17.00;;;5.93;;
2548;SDS011;1284;53.520;10.248;2023-09-12T00:31:18;11.73;;;4.95;;
2548;SDS011;1284;53.520;10.248;2023-09-12T00:33:43;14.23;;;6.13;;
2548;SDS011;1284;53.520;10.248;2023-09-12T00:36:08;11.05;;;5.25;;
2548;SDS011;1284;53.520;10.248;2023-09-12T00:38:34;9.88;;;5.20;;
2548;SDS011;1284;53.520;10.248;2023-09-12T00:40:59;17.10;;;6.22;;
2548;SDS011;1284;53.520;10.248;2023-09-12T00:43:25;12.75;;;6.63;;
2548;SDS011;1284;53.520;10.248;2023-09-12T00:45:50;12.82;;;6.18;;
2548;SDS011;1284;53.520;10.248;2023-09-12T00:48:16;15.32;;;5.95;;
2548;SDS011;1284;53.520;10.248;2023-09-12T00:50:43;16.42;;;7.60;;
2548;SDS011;1284;53.520;10.248;2023-09-12T00:53:11;16.25;;;7.57;;
2548;SDS011;1284;53.520;10.248;2023-09-12T00:55:37;19.38;;;8.27;;
2548;SDS011;1284;53.520;10.248;2023-09-12T00:58:09;18.20;;;7.75;;
2548;SDS011;1284;53.520;10.248;2023-09-12T01:00:35;19.67;;;8.50;;
2548;SDS011;1284;53.520;10.248;2023-09-12T01:03:01;17.45;;;7.97;;
2548;SDS011;1284;53.520;10.248;2023-09-12T01:05:27;16.70;;;7.70;;
2548;SDS011;1284;53.520;10.248;2023-09-12T01:07:54;15.23;;;7.63;;
2548;SDS011;1284;53.520;10.248;2023-09-12T01:10:20;16.23;;;7.85;;
2548;SDS011;1284;53.520;10.248;2023-09-12T01:12:45;15.48;;;7.40;;
2548;SDS011;1284;53.520;10.248;2023-09-12T01:15:10;19.10;;;7.75;;
2548;SDS011;1284;53.520;10.248;2023-09-12T01:17:39;19.55;;;8.35;;
2548;SDS011;1284;53.520;10.248;2023-09-12T01:20:07;21.23;;;7.82;;
2548;SDS011;1284;53.520;10.248;2023-09-12T01:25:26;20.83;;;8.65;;
2548;SDS011;1284;53.520;10.248;2023-09-12T01:27:55;19.98;;;7.70;;
2548;SDS011;1284;53.520;10.248;2023-09-12T01:30:25;16.35;;;7.25;;
2548;SDS011;1284;53.520;10.248;2023-09-12T01:32:52;23.70;;;8.90;;
2548;SDS011;1284;53.520;10.248;2023-09-12T01:35:19;17.48;;;8.18;;
2548;SDS011;1284;53.520;10.248;2023-09-12T01:37:44;22.05;;;8.20;;
2548;SDS011;1284;53.520;10.248;2023-09-12T01:40:09;26.23;;;7.90;;
2548;SDS011;1284;53.520;10.248;2023-09-12T01:42:42;24.70;;;9.60;;
2548;SDS011;1284;53.520;10.248;2023-09-12T01:45:10;16.02;;;7.18;;
2548;SDS011;1284;53.520;10.248;2023-09-12T01:47:38;23.48;;;8.82;;
2548;SDS011;1284;53.520;10.248;2023-09-12T01:50:06;19.58;;;7.57;;
2548;SDS011;1284;53.520;10.248;2023-09-12T01:52:34;20.75;;;8.95;;
2548;SDS011;1284;53.520;10.248;2023-09-12T01:55:20;23.02;;;7.68;;
2548;SDS011;1284;53.520;10.248;2023-09-12T01:57:47;20.88;;;9.10;;
2548;SDS011;1284;53.520;10.248;2023-09-12T02:00:14;18.98;;;8.18;;
2548;SDS011;1284;53.520;10.248;2023-09-12T02:02:43;18.08;;;7.32;;
2548;SDS011;1284;53.520;10.248;2023-09-12T02:05:13;18.55;;;7.97;;
2548;SDS011;1284;53.520;10.248;2023-09-12T02:07:43;22.45;;;8.05;;
2548;SDS011;1284;53.520;10.248;2023-09-12T02:10:10;19.33;;;7.78;;
2548;SDS011;1284;53.520;10.248;2023-09-12T02:12:35;20.02;;;7.85;;
2548;SDS011;1284;53.520;10.248;2023-09-12T02:15:01;20.75;;;7.95;;
2548;SDS011;1284;53.520;10.248;2023-09-12T02:17:27;18.48;;;7.78;;
2548;SDS011;1284;53.520;10.248;2023-09-12T02:19:52;16.58;;;7.10;;
2548;SDS011;1284;53.520;10.248;2023-09-12T02:22:18;17.98;;;7.85;;
2548;SDS011;1284;53.520;10.248;2023-09-12T02:24:46;19.63;;;7.25;;
2548;SDS011;1284;53.520;10.248;2023-09-12T02:27:11;20.45;;;8.93;;
2548;SDS011;1284;53.520;10.248;2023-09-12T02:29:38;18.30;;;8.07;;
2548;SDS011;1284;53.520;10.248;2023-09-12T02:32:04;16.77;;;8.07;;
2548;SDS011;1284;53.520;10.248;2023-09-12T02:34:30;21.88;;;8.63;;
2548;SDS011;1284;53.520;10.248;2023-09-12T02:36:56;21.33;;;8.75;;
2548;SDS011;1284;53.520;10.248;2023-09-12T02:39:21;20.17;;;7.70;;
2548;SDS011;1284;53.520;10.248;2023-09-12T02:41:47;20.35;;;7.78;;
2548;SDS011;1284;53.520;10.248;2023-09-12T02:44:12;17.45;;;7.55;;
2548;SDS011;1284;53.520;10.248;2023-09-12T02:46:38;20.25;;;7.70;;
2548;SDS011;1284;53.520;10.248;2023-09-12T02:49:03;18.10;;;7.43;;
2548;SDS011;1284;53.520;10.248;2023-09-12T02:51:29;13.25;;;6.18;;
2548;SDS011;1284;53.520;10.248;2023-09-12T02:53:54;13.00;;;6.13;;
2548;SDS011;1284;53.520;10.248;2023-09-12T02:56:20;15.10;;;6.43;;
2548;SDS011;1284;53.520;10.248;2023-09-12T02:58:46;18.65;;;6.90;;
2548;SDS011;1284;53.520;10.248;2023-09-12T03:01:24;14.85;;;6.90;;
2548;SDS011;1284;53.520;10.248;2023-09-12T03:03:53;12.65;;;6.32;;
2548;SDS011;1284;53.520;10.248;2023-09-12T03:06:25;15.82;;;6.20;;
2548;SDS011;1284;53.520;10.248;2023-09-12T03:08:51;14.88;;;6.43;;
2548;SDS011;1284;53.520;10.248;2023-09-12T03:11:17;17.48;;;6.47;;
2548;SDS011;1284;53.520;10.248;2023-09-12T03:13:42;17.17;;;7.32;;
2548;SDS011;1284;53.520;10.248;2023-09-12T03:16:11;12.00;;;5.35;;
2548;SDS011;1284;53.520;10.248;2023-09-12T03:18:36;13.48;;;6.15;;
2548;SDS011;1284;53.520;10.248;2023-09-12T03:21:02;14.38;;;6.20;;
2548;SDS011;1284;53.520;10.248;2023-09-12T03:23:27;12.82;;;6.65;;
2548;SDS011;1284;53.520;10.248;2023-09-12T03:25:53;12.20;;;5.75;;
2548;SDS011;1284;53.520;10.248;2023-09-12T03:28:25;12.43;;;5.78;;
2548;SDS011;1284;53.520;10.248;2023-09-12T03:30:50;15.50;;;5.65;;
2548;SDS011;1284;53.520;10.248;2023-09-12T03:33:28;13.25;;;6.20;;
2548;SDS011;1284;53.520;10.248;2023-09-12T03:35:54;16.15;;;7.05;;
2548;SDS011;1284;53.520;10.248;2023-09-12T03:38:19;13.05;;;6.72;;
2548;SDS011;1284;53.520;10.248;2023-09-12T03:40:48;14.05;;;6.55;;
2548;SDS011;1284;53.520;10.248;2023-09-12T03:43:13;13.10;;;6.32;;
2548;SDS011;1284;53.520;10.248;2023-09-12T03:45:39;14.95;;;6.55;;
2548;SDS011;1284;53.520;10.248;2023-09-12T03:48:04;15.02;;;6.28;;
2548;SDS011;1284;53.520;10.248;2023-09-12T03:50:30;16.73;;;7.18;;
2548;SDS011;1284;53.520;10.248;2023-09-12T03:52:56;17.80;;;7.28;;
2548;SDS011;1284;53.520;10.248;2023-09-12T03:55:21;17.80;;;7.60;;
2548;SDS011;1284;53.520;10.248;2023-09-12T03:57:47;17.15;;;6.85;;
2548;SDS011;1284;53.520;10.248;2023-09-12T04:00:12;16.55;;;7.20;;
2548;SDS011;1284;53.520;10.248;2023-09-12T04:02:39;15.85;;;6.80;;
2548;SDS011;1284;53.520;10.248;2023-09-12T04:05:04;15.90;;;6.85;;
2548;SDS011;1284;53.520;10.248;2023-09-12T04:07:30;20.00;;;7.97;;
2548;SDS011;1284;53.520;10.248;2023-09-12T04:09:55;20.13;;;8.20;;
2548;SDS011;1284;53.520;10.248;2023-09-12T04:12:21;18.38;;;7.50;;
2548;SDS011;1284;53.520;10.248;2023-09-12T04:14:48;21.33;;;8.05;;
2548;SDS011;1284;53.520;10.248;2023-09-12T04:17:14;22.48;;;9.52;;
2548;SDS011;1284;53.520;10.248;2023-09-12T04:19:39;23.83;;;9.57;;
2548;SDS011;1284;53.520;10.248;2023-09-12T04:22:05;17.98;;;8.25;;
2548;SDS011;1284;53.520;10.248;2023-09-12T04:24:31;19.92;;;8.45;;
2548;SDS011;1284;53.520;10.248;2023-09-12T04:26:56;17.10;;;7.97;;
2548;SDS011;1284;53.520;10.248;2023-09-12T04:29:22;24.05;;;9.55;;
2548;SDS011;1284;53.520;10.248;2023-09-12T04:31:47;24.08;;;9.43;;
2548;SDS011;1284;53.520;10.248;2023-09-12T04:34:13;21.10;;;8.82;;
2548;SDS011;1284;53.520;10.248;2023-09-12T04:36:38;25.65;;;9.63;;
2548;SDS011;1284;53.520;10.248;2023-09-12T04:39:04;20.88;;;8.52;;
2548;SDS011;1284;53.520;10.248;2023-09-12T04:41:33;23.60;;;9.15;;
2548;SDS011;1284;53.520;10.248;2023-09-12T04:43:58;23.20;;;8.82;;
2548;SDS011;1284;53.520;10.248;2023-09-12T04:46:25;18.65;;;8.52;;
2548;SDS011;1284;53.520;10.248;2023-09-12T04:48:51;19.92;;;8.18;;
2548;SDS011;1284;53.520;10.248;2023-09-12T04:51:16;18.27;;;8.52;;
2548;SDS011;1284;53.520;10.248;2023-09-12T04:53:42;18.92;;;7.68;;
2548;SDS011;1284;53.520;10.248;2023-09-12T04:56:08;18.08;;;7.65;;
2548;SDS011;1284;53.520;10.248;2023-09-12T04:58:35;17.98;;;7.97;;
2548;SDS011;1284;53.520;10.248;2023-09-12T05:01:01;20.38;;;8.75;;
2548;SDS011;1284;53.520;10.248;2023-09-12T05:03:27;27.48;;;8.85;;
2548;SDS011;1284;53.520;10.248;2023-09-12T05:05:52;25.95;;;8.57;;
2548;SDS011;1284;53.520;10.248;2023-09-12T05:08:19;20.45;;;8.63;;
2548;SDS011;1284;53.520;10.248;2023-09-12T05:10:44;30.20;;;10.80;;
2548;SDS011;1284;53.520;10.248;2023-09-12T05:13:10;19.10;;;8.65;;
2548;SDS011;1284;53.520;10.248;2023-09-12T05:15:36;21.05;;;9.30;;
2548;SDS011;1284;53.520;10.248;2023-09-12T05:18:05;22.42;;;9.45;;
2548;SDS011;1284;53.520;10.248;2023-09-12T05:20:31;22.00;;;8.82;;
2548;SDS011;1284;53.520;10.248;2023-09-12T05:22:57;27.77;;;9.38;;
2548;SDS011;1284;53.520;10.248;2023-09-12T05:25:23;23.23;;;9.40;;
2548;SDS011;1284;53.520;10.248;2023-09-12T05:27:48;21.80;;;8.65;;
2548;SDS011;1284;53.520;10.248;2023-09-12T05:30:14;23.50;;;9.25;;
2548;SDS011;1284;53.520;10.248;2023-09-12T05:32:43;23.30;;;9.05;;
2548;SDS011;1284;53.520;10.248;2023-09-12T05:35:09;20.20;;;8.80;;
2548;SDS011;1284;53.520;10.248;2023-09-12T05:37:34;24.27;;;9.05;;
2548;SDS011;1284;53.520;10.248;2023-09-12T05:40:00;20.90;;;8.57;;
2548;SDS011;1284;53.520;10.248;2023-09-12T05:42:25;24.45;;;7.80;;
2548;SDS011;1284;53.520;10.248;2023-09-12T05:44:51;25.92;;;9.73;;
2548;SDS011;1284;53.520;10.248;2023-09-12T05:47:19;18.42;;;7.65;;
2548;SDS011;1284;53.520;10.248;2023-09-12T05:49:46;22.38;;;7.90;;
2548;SDS011;1284;53.520;10.248;2023-09-12T05:52:12;19.48;;;7.95;;
2548;SDS011;1284;53.520;10.248;2023-09-12T05:54:38;22.63;;;8.48;;
2548;SDS011;1284;53.520;10.248;2023-09-12T05:57:04;17.52;;;8.32;;
2548;SDS011;1284;53.520;10.248;2023-09-12T05:59:30;22.40;;;8.45;;
2548;SDS011;1284;53.520;10.248;2023-09-12T06:02:01;15.93;;;7.50;;
2548;SDS011;1284;53.520;10.248;2023-09-12T06:04:26;15.05;;;7.07;;
2548;SDS011;1284;53.520;10.248;2023-09-12T06:06:52;18.42;;;7.88;;
2548;SDS011;1284;53.520;10.248;2023-09-12T06:09:17;21.92;;;8.57;;
2548;SDS011;1284;53.520;10.248;2023-09-12T06:11:43;19.92;;;8.25;;
2548;SDS011;1284;53.520;10.248;2023-09-12T06:14:08;20.42;;;8.57;;
2548;SDS011;1284;53.520;10.248;2023-09-12T06:16:33;21.60;;;8.98;;
2548;SDS011;1284;53.520;10.248;2023-09-12T06:18:59;23.58;;;9.63;;
2548;SDS011;1284;53.520;10.248;2023-09-12T06:21:24;23.90;;;8.80;;
2548;SDS011;1284;53.520;10.248;2023-09-12T06:24:08;20.38;;;7.85;;
2548;SDS011;1284;53.520;10.248;2023-09-12T06:26:36;19.98;;;8.20;;
2548;SDS011;1284;53.520;10.248;2023-09-12T06:29:02;21.90;;;9.30;;
2548;SDS011;1284;53.520;10.248;2023-09-12T06:31:27;22.00;;;9.32;;
2548;SDS011;1284;53.520;10.248;2023-09-12T06:33:53;25.92;;;9.25;;
2548;SDS011;1284;53.520;10.248;2023-09-12T06:36:19;26.33;;;8.48;;
2548;SDS011;1284;53.520;10.248;2023-09-12T06:38:44;19.20;;;7.53;;
2548;SDS011;1284;53.520;10.248;2023-09-12T06:41:09;23.58;;;8.38;;
2548;SDS011;1284;53.520;10.248;2023-09-12T06:43:38;24.98;;;8.88;;
2548;SDS011;1284;53.520;10.248;2023-09-12T06:46:03;18.02;;;8.63;;
2548;SDS011;1284;53.520;10.248;2023-09-12T06:48:29;20.90;;;7.82;;
2548;SDS011;1284;53.520;10.248;2023-09-12T06:50:54;20.75;;;7.72;;
2548;SDS011;1284;53.520;10.248;2023-09-12T06:53:20;17.70;;;7.43;;
2548;SDS011;1284;53.520;10.248;2023-09-12T06:55:45;25.30;;;9.15;;
2548;SDS011;1284;53.520;10.248;2023-09-12T06:58:11;18.15;;;7.30;;
2548;SDS011;1284;53.520;10.248;2023-09-12T07:00:37;25.17;;;8.23;;
2548;SDS011;1284;53.520;10.248;2023-09-12T07:03:02;23.80;;;8.75;;
2548;SDS011;1284;53.520;10.248;2023-09-12T07:05:28;28.42;;;9.00;;
2548;SDS011;1284;53.520;10.248;2023-09-12T07:07:53;24.52;;;9.57;;
2548;SDS011;1284;53.520;10.248;2023-09-12T07:10:19;25.90;;;9.57;;
2548;SDS011;1284;53.520;10.248;2023-09-12T07:12:44;20.20;;;8.55;;
2548;SDS011;1284;53.520;10.248;2023-09-12T07:15:10;20.63;;;8.02;;
2548;SDS011;1284;53.520;10.248;2023-09-12T07:17:35;23.42;;;8.98;;
2548;SDS011;1284;53.520;10.248;2023-09-12T07:20:01;22.67;;;7.75;;
2548;SDS011;1284;53.520;10.248;2023-09-12T07:22:26;18.52;;;8.07;;
2548;SDS011;1284;53.520;10.248;2023-09-12T07:24:52;30.73;;;10.70;;
2548;SDS011;1284;53.520;10.248;2023-09-12T07:27:17;25.20;;;9.05;;
2548;SDS011;1284;53.520;10.248;2023-09-12T07:29:42;23.38;;;9.23;;
2548;SDS011;1284;53.520;10.248;2023-09-12T07:32:08;22.20;;;9.25;;
2548;SDS011;1284;53.520;10.248;2023-09-12T07:34:33;22.25;;;8.18;;
2548;SDS011;1284;53.520;10.248;2023-09-12T07:36:59;19.98;;;8.98;;
2548;SDS011;1284;53.520;10.248;2023-09-12T07:39:24;26.73;;;8.98;;
2548;SDS011;1284;53.520;10.248;2023-09-12T07:41:50;24.45;;;9.00;;
2548;SDS011;1284;53.520;10.248;2023-09-12T07:44:15;23.27;;;9.05;;
2548;SDS011;1284;53.520;10.248;2023-09-12T07:46:42;23.92;;;9.43;;
2548;SDS011;1284;53.520;10.248;2023-09-12T07:49:08;29.13;;;9.07;;
2548;SDS011;1284;53.520;10.248;2023-09-12T07:51:34;24.65;;;8.65;;
2548;SDS011;1284;53.520;10.248;2023-09-12T07:54:00;22.40;;;8.88;;
2548;SDS011;1284;53.520;10.248;2023-09-12T07:56:26;19.60;;;8.18;;
2548;SDS011;1284;53.520;10.248;2023-09-12T07:58:52;20.92;;;8.35;;
2548;SDS011;1284;53.520;10.248;2023-09-12T08:01:17;21.50;;;8.00;;
2548;SDS011;1284;53.520;10.248;2023-09-12T08:03:43;23.80;;;7.53;;
2548;SDS011;1284;53.520;10.248;2023-09-12T08:06:09;26.95;;;9.02;;
2548;SDS011;1284;53.520;10.248;2023-09-12T08:08:34;24.00;;;9.25;;
2548;SDS011;1284;53.520;10.248;2023-09-12T08:11:00;26.77;;;8.48;;
2548;SDS011;1284;53.520;10.248;2023-09-12T08:13:27;28.85;;;9.18;;
2548;SDS011;1284;53.520;10.248;2023-09-12T08:15:53;25.90;;;9.32;;
2548;SDS011;1284;53.520;10.248;2023-09-12T08:18:19;23.83;;;8.60;;
2548;SDS011;1284;53.520;10.248;2023-09-12T08:20:45;19.92;;;8.18;;
2548;SDS011;1284;53.520;10.248;2023-09-12T08:23:10;20.48;;;8.13;;
2548;SDS011;1284;53.520;10.248;2023-09-12T08:25:36;27.15;;;9.02;;
2548;SDS011;1284;53.520;10.248;2023-09-12T08:28:01;23.80;;;8.73;;
2548;SDS011;1284;53.520;10.248;2023-09-12T08:30:27;20.75;;;8.93;;
2548;SDS011;1284;53.520;10.248;2023-09-12T08:32:54;23.08;;;8.00;;
2548;SDS011;1284;53.520;10.248;2023-09-12T08:35:21;24.55;;;7.93;;
2548;SDS011;1284;53.520;10.248;2023-09-12T08:37:46;19.13;;;7.55;;
2548;SDS011;1284;53.520;10.248;2023-09-12T08:40:12;20.95;;;7.55;;
2548;SDS011;1284;53.520;10.248;2023-09-12T08:43:00;22.02;;;7.85;;
2548;SDS011;1284;53.520;10.248;2023-09-12T08:45:25;20.48;;;8.25;;
2548;SDS011;1284;53.520;10.248;2023-09-12T08:47:53;20.08;;;7.78;;
2548;SDS011;1284;53.520;10.248;2023-09-12T08:50:22;24.90;;;8.57;;
2548;SDS011;1284;53.520;10.248;2023-09-12T08:52:48;19.05;;;8.13;;
2548;SDS011;1284;53.520;10.248;2023-09-12T08:55:14;28.98;;;8.18;;
2548;SDS011;1284;53.520;10.248;2023-09-12T08:57:43;28.88;;;10.00;;
2548;SDS011;1284;53.520;10.248;2023-09-12T09:00:13;26.30;;;9.32;;
2548;SDS011;1284;53.520;10.248;2023-09-12T09:02:40;22.23;;;7.57;;
2548;SDS011;1284;53.520;10.248;2023-09-12T09:05:06;20.88;;;8.57;;
2548;SDS011;1284;53.520;10.248;2023-09-12T09:07:35;18.65;;;6.97;;
2548;SDS011;1284;53.520;10.248;2023-09-12T09:10:03;22.20;;;8.25;;
2548;SDS011;1284;53.520;10.248;2023-09-12T09:12:30;19.70;;;8.48;;
2548;SDS011;1284;53.520;10.248;2023-09-12T09:14:56;21.27;;;7.50;;
2548;SDS011;1284;53.520;10.248;2023-09-12T09:17:21;17.52;;;7.10;;
2548;SDS011;1284;53.520;10.248;2023-09-12T09:19:48;18.08;;;7.07;;
2548;SDS011;1284;53.520;10.248;2023-09-12T09:22:14;20.70;;;6.93;;
2548;SDS011;1284;53.520;10.248;2023-09-12T09:24:39;19.25;;;7.38;;
2548;SDS011;1284;53.520;10.248;2023-09-12T09:27:05;21.42;;;8.23;;
2548;SDS011;1284;53.520;10.248;2023-09-12T09:29:30;16.15;;;6.45;;
2548;SDS011;1284;53.520;10.248;2023-09-12T09:32:10;18.08;;;7.25;;
2548;SDS011;1284;53.520;10.248;2023-09-12T09:34:46;16.38;;;6.80;;
2548;SDS011;1284;53.520;10.248;2023-09-12T09:37:12;17.58;;;6.72;;
2548;SDS011;1284;53.520;10.248;2023-09-12T09:39:39;15.73;;;7.32;;
2548;SDS011;1284;53.520;10.248;2023-09-12T09:42:06;14.05;;;6.95;;
2548;SDS011;1284;53.520;10.248;2023-09-12T09:44:35;13.63;;;6.32;;
2548;SDS011;1284;53.520;10.248;2023-09-12T09:47:01;13.90;;;6.68;;
2548;SDS011;1284;53.520;10.248;2023-09-12T09:49:30;17.45;;;7.07;;
2548;SDS011;1284;53.520;10.248;2023-09-12T09:51:56;15.60;;;6.20;;
2548;SDS011;1284;53.520;10.248;2023-09-12T09:54:24;12.10;;;5.88;;
2548;SDS011;1284;53.520;10.248;2023-09-12T09:56:54;15.75;;;6.35;;
2548;SDS011;1284;53.520;10.248;2023-09-12T09:59:21;13.10;;;6.13;;
2548;SDS011;1284;53.520;10.248;2023-09-12T10:01:49;13.90;;;6.28;;
2548;SDS011;1284;53.520;10.248;2023-09-12T10:04:16;13.25;;;5.97;;
2548;SDS011;1284;53.520;10.248;2023-09-12T10:06:44;14.00;;;6.00;;
2548;SDS011;1284;53.520;10.248;2023-09-12T10:09:11;12.88;;;5.85;;
2548;SDS011;1284;53.520;10.248;2023-09-12T10:11:39;12.05;;;5.55;;
2548;SDS011;1284;53.520;10.248;2023-09-12T10:14:07;14.48;;;6.28;;
2548;SDS011;1284;53.520;10.248;2023-09-12T10:16:34;17.52;;;7.03;;
2548;SDS011;1284;53.520;10.248;2023-09-12T10:19:20;15.88;;;6.13;;
2548;SDS011;1284;53.520;10.248;2023-09-12T10:24:56;15.65;;;6.68;;
2548;SDS011;1284;53.520;10.248;2023-09-12T10:27:24;14.35;;;6.38;;
2548;SDS011;1284;53.520;10.248;2023-09-12T10:29:50;16.40;;;6.93;;
2548;SDS011;1284;53.520;10.248;2023-09-12T10:32:18;16.52;;;6.47;;
2548;SDS011;1284;53.520;10.248;2023-09-12T10:34:45;18.23;;;7.28;;
2548;SDS011;1284;53.520;10.248;2023-09-12T10:37:12;15.48;;;6.97;;
2548;SDS011;1284;53.520;10.248;2023-09-12T10:39:41;13.45;;;6.22;;
2548;SDS011;1284;53.520;10.248;2023-09-12T10:42:08;17.13;;;7.18;;
2548;SDS011;1284;53.520;10.248;2023-09-12T10:44:35;15.90;;;7.15;;
2548;SDS011;1284;53.520;10.248;2023-09-12T10:47:00;12.98;;;6.85;;
2548;SDS011;1284;53.520;10.248;2023-09-12T10:49:29;16.13;;;6.93;;
2548;SDS011;1284;53.520;10.248;2023-09-12T10:51:55;16.10;;;6.88;;
2548;SDS011;1284;53.520;10.248;2023-09-12T10:54:23;15.57;;;7.07;;
2548;SDS011;1284;53.520;10.248;2023-09-12T10:57:11;13.02;;;5.72;;
2548;SDS011;1284;53.520;10.248;2023-09-12T11:05:04;14.05;;;6.30;;
2548;SDS011;1284;53.520;10.248;2023-09-12T11:10:24;16.63;;;6.07;;
2548;SDS011;1284;53.520;10.248;2023-09-12T11:12:51;18.63;;;6.88;;
2548;SDS011;1284;53.520;10.248;2023-09-12T11:15:18;13.98;;;6.40;;
2548;SDS011;1284;53.520;10.248;2023-09-12T11:17:46;11.68;;;6.03;;
2548;SDS011;1284;53.520;10.248;2023-09-12T11:20:13;11.68;;;6.00;;
2548;SDS011;1284;53.520;10.248;2023-09-12T11:30:16;11.18;;;5.65;;
2548;SDS011;1284;53.520;10.248;2023-09-12T11:32:46;15.80;;;5.82;;
2548;SDS011;1284;53.520;10.248;2023-09-12T11:35:13;10.85;;;5.55;;
2548;SDS011;1284;53.520;10.248;2023-09-12T11:37:47;10.02;;;4.90;;
2548;SDS011;1284;53.520;10.248;2023-09-12T11:40:15;10.10;;;5.03;;
2548;SDS011;1284;53.520;10.248;2023-09-12T11:42:43;9.18;;;4.93;;
2548;SDS011;1284;53.520;10.248;2023-09-12T11:45:09;11.70;;;5.07;;
2548;SDS011;1284;53.520;10.248;2023-09-12T11:47:41;11.52;;;5.88;;
2548;SDS011;1284;53.520;10.248;2023-09-12T11:50:07;13.90;;;5.85;;
2548;SDS011;1284;53.520;10.248;2023-09-12T11:52:37;11.35;;;5.43;;
2548;SDS011;1284;53.520;10.248;2023-09-12T11:55:03;9.18;;;5.13;;
2548;SDS011;1284;53.520;10.248;2023-09-12T11:57:29;10.73;;;4.95;;
2548;SDS011;1284;53.520;10.248;2023-09-12T11:59:55;11.30;;;4.65;;
2548;SDS011;1284;53.520;10.248;2023-09-12T12:02:21;11.63;;;4.88;;
2548;SDS011;1284;53.520;10.248;2023-09-12T12:04:46;12.40;;;5.05;;
2548;SDS011;1284;53.520;10.248;2023-09-12T12:07:12;9.95;;;4.75;;
2548;SDS011;1284;53.520;10.248;2023-09-12T12:09:38;9.20;;;4.90;;
2548;SDS011;1284;53.520;10.248;2023-09-12T12:12:04;9.45;;;4.35;;
2548;SDS011;1284;53.520;10.248;2023-09-12T12:14:34;9.60;;;4.35;;
2548;SDS011;1284;53.520;10.248;2023-09-12T12:17:10;6.95;;;4.05;;
2548;SDS011;1284;53.520;10.248;2023-09-12T12:19:37;7.93;;;4.22;;
2548;SDS011;1284;53.520;10.248;2023-09-12T12:22:06;9.25;;;5.03;;
2548;SDS011;1284;53.520;10.248;2023-09-12T12:24:41;9.48;;;4.90;;
2548;SDS011;1284;53.520;10.248;2023-09-12T12:27:10;7.85;;;4.45;;
2548;SDS011;1284;53.520;10.248;2023-09-12T12:29:36;8.55;;;4.40;;
2548;SDS011;1284;53.520;10.248;2023-09-12T12:32:04;9.23;;;4.38;;
2548;SDS011;1284;53.520;10.248;2023-09-12T12:34:30;7.80;;;4.07;;
2548;SDS011;1284;53.520;10.248;2023-09-12T12:36:55;9.10;;;4.47;;
2548;SDS011;1284;53.520;10.248;2023-09-12T12:39:42;8.63;;;4.35;;
2548;SDS011;1284;53.520;10.248;2023-09-12T12:42:08;9.05;;;4.20;;
2548;SDS011;1284;53.520;10.248;2023-09-12T12:44:34;9.48;;;4.50;;
2548;SDS011;1284;53.520;10.248;2023-09-12T12:47:06;8.20;;;4.03;;
2548;SDS011;1284;53.520;10.248;2023-09-12T12:49:35;8.13;;;4.10;;
2548;SDS011;1284;53.520;10.248;2023-09-12T12:52:03;9.20;;;4.47;;
2548;SDS011;1284;53.520;10.248;2023-09-12T12:54:34;8.10;;;4.15;;
2548;SDS011;1284;53.520;10.248;2023-09-12T12:57:00;8.98;;;4.38;;
2548;SDS011;1284;53.520;10.248;2023-09-12T12:59:26;10.38;;;4.57;;
2548;SDS011;1284;53.520;10.248;2023-09-12T13:01:51;11.18;;;4.45;;
2548;SDS011;1284;53.520;10.248;2023-09-12T13:04:17;10.88;;;5.00;;
2548;SDS011;1284;53.520;10.248;2023-09-12T13:06:42;6.82;;;3.90;;
2548;SDS011;1284;53.520;10.248;2023-09-12T13:09:08;9.25;;;4.22;;
2548;SDS011;1284;53.520;10.248;2023-09-12T13:11:36;8.23;;;3.47;;
2548;SDS011;1284;53.520;10.248;2023-09-12T13:14:03;7.97;;;4.30;;
2548;SDS011;1284;53.520;10.248;2023-09-12T13:16:34;8.77;;;4.28;;
2548;SDS011;1284;53.520;10.248;2023-09-12T13:19:00;9.45;;;4.25;;
2548;SDS011;1284;53.520;10.248;2023-09-12T13:21:25;7.80;;;3.95;;
2548;SDS011;1284;53.520;10.248;2023-09-12T13:23:51;5.88;;;3.40;;
2548;SDS011;1284;53.520;10.248;2023-09-12T13:26:16;7.20;;;3.90;;
2548;SDS011;1284;53.520;10.248;2023-09-12T13:28:42;9.68;;;4.25;;
2548;SDS011;1284;53.520;10.248;2023-09-12T13:31:07;9.90;;;3.85;;
2548;SDS011;1284;53.520;10.248;2023-09-12T13:33:33;8.15;;;3.75;;
2548;SDS011;1284;53.520;10.248;2023-09-12T13:35:58;9.90;;;3.45;;
2548;SDS011;1284;53.520;10.248;2023-09-12T13:38:24;6.63;;;3.15;;
2548;SDS011;1284;53.520;10.248;2023-09-12T13:40:50;7.90;;;3.90;;
2548;SDS011;1284;53.520;10.248;2023-09-12T13:43:15;7.38;;;3.33;;
2548;SDS011;1284;53.520;10.248;2023-09-12T13:45:41;8.02;;;3.78;;
2548;SDS011;1284;53.520;10.248;2023-09-12T13:48:06;6.65;;;3.30;;
2548;SDS011;1284;53.520;10.248;2023-09-12T13:50:33;6.03;;;3.38;;
2548;SDS011;1284;53.520;10.248;2023-09-12T13:52:59;6.47;;;2.92;;
2548;SDS011;1284;53.520;10.248;2023-09-12T13:55:28;7.43;;;3.72;;
2548;SDS011;1284;53.520;10.248;2023-09-12T13:57:54;5.82;;;3.25;;
2548;SDS011;1284;53.520;10.248;2023-09-12T14:00:20;7.78;;;3.67;;
2548;SDS011;1284;53.520;10.248;2023-09-12T14:02:45;6.97;;;3.60;;
2548;SDS011;1284;53.520;10.248;2023-09-12T14:05:13;6.70;;;3.42;;
2548;SDS011;1284;53.520;10.248;2023-09-12T14:07:39;6.47;;;3.55;;
2548;SDS011;1284;53.520;10.248;2023-09-12T14:10:07;6.85;;;3.58;;
2548;SDS011;1284;53.520;10.248;2023-09-12T14:12:33;6.53;;;3.63;;
2548;SDS011;1284;53.520;10.248;2023-09-12T14:15:02;6.72;;;3.25;;
2548;SDS011;1284;53.520;10.248;2023-09-12T14:17:28;5.53;;;3.17;;
2548;SDS011;1284;53.520;10.248;2023-09-12T14:19:54;6.65;;;3.38;;
2548;SDS011;1284;53.520;10.248;2023-09-12T14:22:20;4.95;;;3.10;;
2548;SDS011;1284;53.520;10.248;2023-09-12T14:24:46;6.28;;;3.38;;
2548;SDS011;1284;53.520;10.248;2023-09-12T14:27:12;5.70;;;3.17;;
2548;SDS011;1284;53.520;10.248;2023-09-12T14:29:37;6.43;;;3.13;;
2548;SDS011;1284;53.520;10.248;2023-09-12T14:32:03;5.53;;;3.22;;
2548;SDS011;1284;53.520;10.248;2023-09-12T14:34:29;6.28;;;3.97;;
2548;SDS011;1284;53.520;10.248;2023-09-12T14:36:57;5.72;;;3.08;;
2548;SDS011;1284;53.520;10.248;2023-09-12T14:39:23;9.20;;;4.00;;
2548;SDS011;1284;53.520;10.248;2023-09-12T14:41:49;6.93;;;3.28;;
2548;SDS011;1284;53.520;10.248;2023-09-12T14:44:35;5.45;;;2.90;;
2548;SDS011;1284;53.520;10.248;2023-09-12T14:47:00;7.32;;;3.58;;
2548;SDS011;1284;53.520;10.248;2023-09-12T14:49:26;6.32;;;3.40;;
2548;SDS011;1284;53.520;10.248;2023-09-12T14:51:51;5.80;;;3.30;;
2548;SDS011;1284;53.520;10.248;2023-09-12T14:54:17;5.40;;;3.35;;
2548;SDS011;1284;53.520;10.248;2023-09-12T14:56:42;5.90;;;3.70;;
2548;SDS011;1284;53.520;10.248;2023-09-12T14:59:08;6.57;;;3.58;;
2548;SDS011;1284;53.520;10.248;2023-09-12T15:01:33;6.75;;;3.17;;
2548;SDS011;1284;53.520;10.248;2023-09-12T15:04:02;6.13;;;3.05;;
2548;SDS011;1284;53.520;10.248;2023-09-12T15:06:27;4.53;;;2.75;;
2548;SDS011;1284;53.520;10.248;2023-09-12T15:08:55;8.80;;;3.38;;
2548;SDS011;1284;53.520;10.248;2023-09-12T15:11:20;7.10;;;2.72;;